createdAt,value
2022-07-29T00:01:19.126Z,21.92
2022-07-29T00:03:46.839Z,22.14
2022-07-29T00:06:14.262Z,21.90
2022-07-29T00:08:41.239Z,22.07
2022-07-29T00:11:08.280Z,22.23
2022-07-29T00:13:35.401Z,22.20
2022-07-29T00:16:04.435Z,22.22
2022-07-29T00:18:32.949Z,22.28
2022-07-29T00:21:00.408Z,22.30
2022-07-29T00:23:27.555Z,22.49
2022-07-29T00:25:54.615Z,22.58
2022-07-29T00:28:21.592Z,22.45
2022-07-29T00:30:48.672Z,22.50
2022-07-29T00:33:15.758Z,22.61
2022-07-29T00:35:45.918Z,22.63
2022-07-29T00:38:17.523Z,22.56
2022-07-29T00:40:45.495Z,22.80
2022-07-29T00:43:14.754Z,22.72
2022-07-29T00:45:45.218Z,22.88
2022-07-29T00:48:12.308Z,22.93
2022-07-29T00:50:40.152Z,23.16
2022-07-29T00:53:08.566Z,23.31
2022-07-29T00:55:36.088Z,22.51
2022-07-29T00:58:03.810Z,22.24
2022-07-29T01:00:31.426Z,22.37
2022-07-29T01:02:58.927Z,21.98
2022-07-29T01:05:49.860Z,21.38
2022-07-29T01:08:17.098Z,21.29
2022-07-29T01:10:46.520Z,21.02
2022-07-29T01:13:14.846Z,21.05
2022-07-29T01:16:08.572Z,21.17
2022-07-29T01:18:39.202Z,21.23
2022-07-29T01:21:35.066Z,21.13
2022-07-29T01:24:10.917Z,21.19
2022-07-29T01:26:48.129Z,20.95
2022-07-29T01:29:59.915Z,21.10
2022-07-29T01:32:34.234Z,21.47
2022-07-29T01:35:37.610Z,21.65
2022-07-29T01:38:26.313Z,21.74
2022-07-29T01:41:00.083Z,21.51
2022-07-29T01:43:41.881Z,21.49
2022-07-29T01:46:15.683Z,21.09
2022-07-29T01:48:58.843Z,20.73
2022-07-29T01:51:32.907Z,20.77
2022-07-29T01:54:11.998Z,20.89
2022-07-29T01:56:40.694Z,20.97
2022-07-29T01:59:10.610Z,21.42
2022-07-29T02:01:40.369Z,21.54
2022-07-29T02:04:10.942Z,21.42
2022-07-29T02:06:41.325Z,21.76
2022-07-29T02:09:09.601Z,21.59
2022-07-29T02:11:38.888Z,21.33
2022-07-29T02:14:08.244Z,21.23
2022-07-29T02:16:38.707Z,20.82
2022-07-29T02:19:09.796Z,20.82
2022-07-29T02:21:37.099Z,20.70
2022-07-29T02:24:06.158Z,20.59
2022-07-29T02:26:34.775Z,20.78
2022-07-29T02:29:03.344Z,20.92
2022-07-29T02:31:34.809Z,21.05
2022-07-29T02:34:04.652Z,21.11
2022-07-29T02:36:33.867Z,21.16
2022-07-29T02:39:03.420Z,21.21
2022-07-29T02:41:51.631Z,21.16
2022-07-29T02:44:21.846Z,21.04
2022-07-29T02:47:25.788Z,20.66
2022-07-29T02:50:02.505Z,20.85
2022-07-29T02:52:41.089Z,20.83
2022-07-29T02:55:37.578Z,20.65
2022-07-29T02:58:13.787Z,20.56
2022-07-29T03:00:42.230Z,20.54
2022-07-29T03:03:13.797Z,20.61
2022-07-29T03:05:41.371Z,20.57
2022-07-29T03:08:11.553Z,20.57
2022-07-29T03:10:45.160Z,20.22
2022-07-29T03:13:14.314Z,20.13
2022-07-29T03:15:44.761Z,20.04
2022-07-29T03:18:12.343Z,20.48
2022-07-29T03:20:40.093Z,20.56
2022-07-29T03:23:07.656Z,20.63
2022-07-29T03:25:34.702Z,20.65
2022-07-29T03:28:01.739Z,20.84
2022-07-29T03:30:31.686Z,20.87
2022-07-29T03:32:59.220Z,20.80
2022-07-29T03:35:26.276Z,20.88
2022-07-29T03:37:53.251Z,20.97
2022-07-29T03:40:36.672Z,20.94
2022-07-29T03:43:05.004Z,21.37
2022-07-29T03:45:33.842Z,21.46
2022-07-29T03:48:06.713Z,21.69
2022-07-29T03:50:34.904Z,21.85
2022-07-29T03:53:02.565Z,22.00
2022-07-29T03:55:33.509Z,22.08
2022-07-29T03:58:02.775Z,22.17
2022-07-29T04:00:31.138Z,22.09
2022-07-29T04:02:58.953Z,22.28
2022-07-29T04:05:25.936Z,22.62
2022-07-29T04:07:52.864Z,22.57
2022-07-29T04:10:26.886Z,22.35
2022-07-29T04:12:59.089Z,22.61
2022-07-29T04:15:26.085Z,23.09
2022-07-29T04:17:57.885Z,23.34
2022-07-29T04:20:24.826Z,23.33
2022-07-29T04:22:52.127Z,23.57
2022-07-29T04:25:19.076Z,23.85
2022-07-29T04:28:04.388Z,23.93
2022-07-29T04:30:32.869Z,24.34
2022-07-29T04:33:01.901Z,24.64
2022-07-29T04:35:30.140Z,24.92
2022-07-29T04:37:57.453Z,25.25
2022-07-29T04:40:24.378Z,25.35
2022-07-29T04:42:51.373Z,25.38
2022-07-29T04:45:22.282Z,25.29
2022-07-29T04:47:49.949Z,25.55
2022-07-29T04:50:16.930Z,25.61
2022-07-29T04:52:44.894Z,25.86
2022-07-29T04:55:11.944Z,26.29
2022-07-29T04:57:38.869Z,26.14
2022-07-29T05:00:07.215Z,26.61
2022-07-29T05:02:34.233Z,26.69
2022-07-29T05:05:01.354Z,26.47
2022-07-29T05:07:28.280Z,25.64
2022-07-29T05:09:57.950Z,25.78
2022-07-29T05:12:25.692Z,26.11
2022-07-29T05:14:52.983Z,26.10
2022-07-29T05:17:20.144Z,26.19
2022-07-29T05:19:47.339Z,26.14
2022-07-29T05:22:14.335Z,26.18
2022-07-29T05:24:41.852Z,26.31
2022-07-29T05:27:08.764Z,26.35
2022-07-29T05:29:44.221Z,26.51
2022-07-29T05:32:12.023Z,26.92
2022-07-29T05:34:50.845Z,27.37
2022-07-29T05:37:19.851Z,27.32
2022-07-29T05:39:48.770Z,27.26
2022-07-29T05:42:16.250Z,27.64
2022-07-29T05:44:43.277Z,27.52
2022-07-29T05:47:10.213Z,27.63
2022-07-29T05:49:37.234Z,28.27
2022-07-29T05:52:04.662Z,28.37
2022-07-29T05:54:31.771Z,28.89
2022-07-29T05:56:58.764Z,29.23
2022-07-29T05:59:30.142Z,29.61
2022-07-29T06:01:58.440Z,29.93
2022-07-29T06:04:25.786Z,29.47
2022-07-29T06:06:52.831Z,29.74
2022-07-29T06:09:20.094Z,29.82
2022-07-29T06:11:47.130Z,30.03
2022-07-29T06:14:14.771Z,30.59
2022-07-29T06:16:42.351Z,30.61
2022-07-29T06:19:09.612Z,31.00
2022-07-29T06:21:38.665Z,30.96
2022-07-29T06:24:09.164Z,31.34
2022-07-29T06:26:39.699Z,31.40
2022-07-29T06:29:07.897Z,31.33
2022-07-29T06:31:35.455Z,31.55
2022-07-29T06:34:02.374Z,32.14
2022-07-29T06:36:31.040Z,31.89
2022-07-29T06:38:58.067Z,31.56
2022-07-29T06:41:25.023Z,31.84
2022-07-29T06:43:55.211Z,31.58
2022-07-29T06:46:24.236Z,32.03
2022-07-29T06:48:53.078Z,31.92
2022-07-29T06:51:22.786Z,32.40
2022-07-29T06:53:59.500Z,32.24
2022-07-29T06:56:39.524Z,32.35
2022-07-29T06:59:10.565Z,32.72
2022-07-29T07:01:38.779Z,33.01
2022-07-29T07:04:05.883Z,33.17
2022-07-29T07:06:33.668Z,33.45
2022-07-29T07:09:00.639Z,33.60
2022-07-29T07:11:27.986Z,33.76
2022-07-29T07:13:59.267Z,32.66
2022-07-29T07:16:29.587Z,31.86
2022-07-29T07:18:56.515Z,31.20
2022-07-29T07:21:24.663Z,31.53
2022-07-29T07:23:51.620Z,32.23
2022-07-29T07:26:18.540Z,32.02
2022-07-29T07:28:45.521Z,31.38
2022-07-29T07:31:13.038Z,30.89
2022-07-29T07:33:40.022Z,31.64
2022-07-29T07:36:07.084Z,31.36
2022-07-29T07:38:34.087Z,31.01
2022-07-29T07:41:02.198Z,30.57
2022-07-29T07:43:29.310Z,30.87
2022-07-29T07:45:56.316Z,30.69
2022-07-29T07:48:23.279Z,30.58
2022-07-29T07:50:50.553Z,31.29
2022-07-29T07:53:17.811Z,31.10
2022-07-29T07:56:09.377Z,31.09
2022-07-29T07:58:33.877Z,30.79
2022-07-29T08:01:00.818Z,30.44
2022-07-29T08:03:27.805Z,30.31
2022-07-29T08:05:55.428Z,30.62
2022-07-29T08:08:22.442Z,30.44
2022-07-29T08:10:57.145Z,30.51
2022-07-29T08:13:31.506Z,30.17
2022-07-29T08:16:02.783Z,30.15
2022-07-29T08:18:31.339Z,30.72
2022-07-29T08:20:59.226Z,31.02
2022-07-29T08:23:32.828Z,30.18
2022-07-29T08:26:14.849Z,30.44
2022-07-29T08:28:45.869Z,30.63
2022-07-29T08:31:14.236Z,30.30
2022-07-29T08:33:41.252Z,30.60
2022-07-29T08:36:08.445Z,30.31
2022-07-29T08:38:36.014Z,30.39
2022-07-29T08:41:03.024Z,30.76
2022-07-29T08:43:30.285Z,30.64
2022-07-29T08:45:57.290Z,30.89
2022-07-29T08:48:25.915Z,31.47
2022-07-29T08:50:57.937Z,31.12
2022-07-29T08:53:27.924Z,30.96
2022-07-29T08:55:56.075Z,30.86
2022-07-29T08:58:24.857Z,31.58
2022-07-29T09:00:56.975Z,31.67
2022-07-29T09:03:28.518Z,31.45
2022-07-29T09:05:55.694Z,31.68
2022-07-29T09:08:24.306Z,31.33
2022-07-29T09:10:52.340Z,31.54
2022-07-29T09:13:19.368Z,31.61
2022-07-29T09:15:46.631Z,31.30
2022-07-29T09:18:19.604Z,31.71
2022-07-29T09:21:16.071Z,31.67
2022-07-29T09:24:00.301Z,31.86
2022-07-29T09:26:37.603Z,31.70
2022-07-29T09:29:17.771Z,31.53
2022-07-29T09:31:50.033Z,31.50
2022-07-29T09:34:29.603Z,31.53
2022-07-29T09:36:57.032Z,31.60
2022-07-29T09:39:36.107Z,32.00
2022-07-29T09:42:07.748Z,32.05
2022-07-29T09:44:50.245Z,32.18
2022-07-29T09:47:19.165Z,32.47
2022-07-29T09:49:54.029Z,31.84
2022-07-29T09:52:21.645Z,31.45
2022-07-29T09:54:48.847Z,31.49
2022-07-29T09:57:31.115Z,31.47
2022-07-29T10:00:11.833Z,31.47
2022-07-29T10:02:41.103Z,31.11
2022-07-29T10:05:21.236Z,31.52
2022-07-29T10:07:51.883Z,31.16
2022-07-29T10:10:29.217Z,31.44
2022-07-29T10:13:06.419Z,31.82
2022-07-29T10:15:42.001Z,31.94
2022-07-29T10:18:10.483Z,31.64
2022-07-29T10:20:38.107Z,32.06
2022-07-29T10:23:05.886Z,31.73
2022-07-29T10:25:33.128Z,31.49
2022-07-29T10:28:00.165Z,31.53
2022-07-29T10:30:27.860Z,31.74
2022-07-29T10:33:03.657Z,31.32
2022-07-29T10:35:55.175Z,31.41
2022-07-29T10:38:33.930Z,31.56
2022-07-29T10:41:29.032Z,31.58
2022-07-29T10:44:23.207Z,31.10
2022-07-29T10:46:56.267Z,31.48
2022-07-29T10:49:28.085Z,31.32
2022-07-29T10:52:00.998Z,32.03
2022-07-29T10:54:52.610Z,31.59
2022-07-29T10:57:53.803Z,31.71
2022-07-29T11:00:17.018Z,31.31
2022-07-29T11:02:47.126Z,31.29
2022-07-29T11:05:21.872Z,31.58
2022-07-29T11:08:21.101Z,31.88
2022-07-29T11:11:15.871Z,32.12
2022-07-29T11:13:44.455Z,32.25
2022-07-29T11:16:11.460Z,32.54
2022-07-29T11:19:14.225Z,32.44
2022-07-29T11:21:55.127Z,32.45
2022-07-29T11:24:34.966Z,32.04
2022-07-29T11:27:18.381Z,32.23
2022-07-29T11:29:58.709Z,31.95
2022-07-29T11:32:38.888Z,31.76
2022-07-29T11:35:17.392Z,31.77
2022-07-29T11:37:52.780Z,32.04
2022-07-29T11:40:25.112Z,31.84
2022-07-29T11:42:52.811Z,32.01
2022-07-29T11:45:43.140Z,31.87
2022-07-29T11:48:28.540Z,31.98
2022-07-29T11:50:58.503Z,32.10
2022-07-29T11:53:26.097Z,32.19
2022-07-29T11:55:58.185Z,32.01
2022-07-29T11:58:26.358Z,31.99
2022-07-29T12:00:55.330Z,32.22
2022-07-29T12:03:33.490Z,31.40
2022-07-29T12:06:24.139Z,31.69
2022-07-29T12:08:51.187Z,31.63
2022-07-29T12:11:20.914Z,31.46
2022-07-29T12:13:50.050Z,31.81
2022-07-29T12:16:26.134Z,32.03
2022-07-29T12:19:02.360Z,32.05
2022-07-29T12:21:53.937Z,31.76
2022-07-29T12:24:27.443Z,31.85
2022-07-29T12:26:57.122Z,31.60
2022-07-29T12:29:34.988Z,31.53
2022-07-29T12:32:04.453Z,31.78
2022-07-29T12:34:32.359Z,31.70
2022-07-29T12:36:59.580Z,32.10
2022-07-29T12:39:29.045Z,31.78
2022-07-29T12:42:04.880Z,31.71
2022-07-29T12:44:51.565Z,31.37
2022-07-29T12:47:19.706Z,31.31
2022-07-29T12:49:47.870Z,32.03
2022-07-29T12:52:26.866Z,31.14
2022-07-29T12:54:53.882Z,31.39
2022-07-29T12:57:20.910Z,31.45
2022-07-29T13:00:00.948Z,31.17
2022-07-29T13:02:28.160Z,30.96
2022-07-29T13:05:00.267Z,30.98
2022-07-29T13:07:55.495Z,30.82
2022-07-29T13:10:24.645Z,30.62
2022-07-29T13:13:09.190Z,30.92
2022-07-29T13:15:41.238Z,31.26
2022-07-29T13:18:31.440Z,30.92
2022-07-29T13:20:58.852Z,31.32
2022-07-29T13:23:25.887Z,31.14
2022-07-29T13:25:52.871Z,31.15
2022-07-29T13:28:22.571Z,31.07
2022-07-29T13:30:49.572Z,31.68
2022-07-29T13:33:16.534Z,31.37
2022-07-29T13:35:43.583Z,31.21
2022-07-29T13:38:10.542Z,30.96
2022-07-29T13:40:37.418Z,31.18
2022-07-29T13:43:05.022Z,31.09
2022-07-29T13:45:32.085Z,30.95
2022-07-29T13:47:58.973Z,30.88
2022-07-29T13:50:25.928Z,30.83
2022-07-29T13:52:53.069Z,30.81
2022-07-29T13:55:20.709Z,30.60
2022-07-29T13:57:47.960Z,30.91
2022-07-29T14:00:16.236Z,30.59
2022-07-29T14:02:44.022Z,31.02
2022-07-29T14:05:11.325Z,30.54
2022-07-29T14:07:42.094Z,30.61
2022-07-29T14:10:09.578Z,30.58
2022-07-29T14:12:36.796Z,30.35
2022-07-29T14:15:04.089Z,30.29
2022-07-29T14:17:31.135Z,30.04
2022-07-29T14:19:58.059Z,29.85
2022-07-29T14:22:26.281Z,29.63
2022-07-29T14:24:53.616Z,29.45
2022-07-29T14:27:20.654Z,29.67
2022-07-29T14:30:05.780Z,29.58
2022-07-29T14:32:32.679Z,29.54
2022-07-29T14:34:59.568Z,29.70
2022-07-29T14:37:26.481Z,29.87
2022-07-29T14:39:53.483Z,29.72
2022-07-29T14:42:20.912Z,29.52
2022-07-29T14:44:48.914Z,29.91
2022-07-29T14:47:16.226Z,29.68
2022-07-29T14:49:43.130Z,29.63
2022-07-29T14:52:09.998Z,29.30
2022-07-29T14:54:36.929Z,29.26
2022-07-29T14:57:03.844Z,28.95
2022-07-29T14:59:30.870Z,29.24
2022-07-29T15:01:58.275Z,29.34
2022-07-29T15:04:25.591Z,29.24
2022-07-29T15:06:52.998Z,29.34
2022-07-29T15:09:19.927Z,29.15
2022-07-29T15:11:46.879Z,29.06
2022-07-29T15:14:13.820Z,29.06
2022-07-29T15:16:43.714Z,28.97
2022-07-29T15:19:11.109Z,29.00
2022-07-29T15:21:41.427Z,28.78
2022-07-29T15:24:15.448Z,28.56
2022-07-29T15:26:43.562Z,28.76
2022-07-29T15:29:10.741Z,28.65
2022-07-29T15:31:37.818Z,28.59
2022-07-29T15:34:06.258Z,28.65
2022-07-29T15:39:21.878Z,28.44
2022-07-29T15:41:49.210Z,28.38
2022-07-29T15:44:16.162Z,28.53
2022-07-29T15:47:02.047Z,28.43
2022-07-29T15:49:47.763Z,28.09
2022-07-29T15:52:25.886Z,28.31
2022-07-29T15:54:56.190Z,28.25
2022-07-29T15:57:23.921Z,28.18
2022-07-29T15:59:51.129Z,28.16
2022-07-29T16:02:18.154Z,27.98
2022-07-29T16:04:45.060Z,27.94
2022-07-29T16:07:12.177Z,27.93
2022-07-29T16:09:41.782Z,27.75
2022-07-29T16:12:14.612Z,27.95
2022-07-29T16:14:42.278Z,27.60
2022-07-29T16:17:09.340Z,27.76
2022-07-29T16:19:41.273Z,27.68
2022-07-29T16:22:08.372Z,27.52
2022-07-29T16:24:35.414Z,27.53
2022-07-29T16:27:02.418Z,27.62
2022-07-29T16:29:29.358Z,27.55
2022-07-29T16:31:56.529Z,27.65
2022-07-29T16:34:23.425Z,27.54
2022-07-29T16:36:50.360Z,27.31
2022-07-29T16:39:17.456Z,27.64
2022-07-29T16:41:44.353Z,27.35
2022-07-29T16:44:11.238Z,27.24
2022-07-29T16:46:40.859Z,27.41
2022-07-29T16:49:08.581Z,27.21
2022-07-29T16:51:35.604Z,26.96
2022-07-29T16:54:02.561Z,26.68
2022-07-29T16:56:29.514Z,26.67
2022-07-29T16:58:58.390Z,26.55
2022-07-29T17:01:25.413Z,26.61
2022-07-29T17:04:07.824Z,26.60
2022-07-29T17:06:36.283Z,26.67
2022-07-29T17:09:05.384Z,26.52
2022-07-29T17:11:53.171Z,26.39
2022-07-29T17:14:27.467Z,26.47
2022-07-29T17:17:02.333Z,26.56
2022-07-29T17:19:35.598Z,26.60
2022-07-29T17:22:18.708Z,26.57
2022-07-29T17:24:48.903Z,26.46
2022-07-29T17:27:16.295Z,26.33
2022-07-29T17:29:43.557Z,26.20
2022-07-29T17:32:11.486Z,26.31
2022-07-29T17:34:40.180Z,26.31
2022-07-29T17:37:09.561Z,26.63
2022-07-29T17:39:37.686Z,26.58
2022-07-29T17:42:05.457Z,26.42
2022-07-29T17:44:36.090Z,26.10
2022-07-29T17:47:04.443Z,26.27
2022-07-29T17:49:31.665Z,26.15
2022-07-29T17:52:00.982Z,26.25
2022-07-29T17:54:29.026Z,26.36
2022-07-29T17:56:56.142Z,26.43
2022-07-29T17:59:23.414Z,26.67
2022-07-29T18:01:50.446Z,26.57
2022-07-29T18:04:21.071Z,26.40
2022-07-29T18:06:48.064Z,26.35
2022-07-29T18:09:14.964Z,25.77
2022-07-29T18:11:44.397Z,26.08
2022-07-29T18:14:12.755Z,26.42
2022-07-29T18:16:39.721Z,26.47
2022-07-29T18:19:06.958Z,26.09
2022-07-29T18:21:42.710Z,26.16
2022-07-29T18:24:18.357Z,26.29
2022-07-29T18:26:45.377Z,26.14
2022-07-29T18:29:12.483Z,26.05
2022-07-29T18:31:41.281Z,26.03
2022-07-29T18:34:08.351Z,25.97
2022-07-29T18:36:35.262Z,26.25
2022-07-29T18:39:02.291Z,26.49
2022-07-29T18:41:29.337Z,26.56
2022-07-29T18:43:56.418Z,26.54
2022-07-29T18:46:23.339Z,26.63
2022-07-29T18:48:52.603Z,26.54
2022-07-29T18:51:19.572Z,26.02
2022-07-29T18:53:46.532Z,26.11
2022-07-29T18:56:13.718Z,25.98
2022-07-29T18:58:40.749Z,26.23
2022-07-29T19:01:07.644Z,26.59
2022-07-29T19:03:34.889Z,26.71
2022-07-29T19:06:01.893Z,26.90
2022-07-29T19:08:28.913Z,26.43
2022-07-29T19:10:56.191Z,26.69
2022-07-29T19:13:23.419Z,26.37
2022-07-29T19:15:50.367Z,26.40
2022-07-29T19:18:17.302Z,26.68
2022-07-29T19:20:44.213Z,26.49
2022-07-29T19:23:11.125Z,26.47
2022-07-29T19:25:48.213Z,26.81
2022-07-29T19:28:21.160Z,26.51
2022-07-29T19:30:48.245Z,26.53
2022-07-29T19:33:17.706Z,26.29
2022-07-29T19:35:45.879Z,26.42
2022-07-29T19:38:13.328Z,26.45
2022-07-29T19:40:40.620Z,26.48
2022-07-29T19:43:50.790Z,26.65
2022-07-29T19:45:54.929Z,26.17
2022-07-29T19:48:21.840Z,26.20
2022-07-29T19:50:48.934Z,26.32
2022-07-29T19:53:15.841Z,26.34
2022-07-29T19:55:42.879Z,26.16
2022-07-29T19:58:09.795Z,26.13
2022-07-29T20:00:36.880Z,26.12
2022-07-29T20:03:07.087Z,26.31
2022-07-29T20:05:34.179Z,26.52
2022-07-29T20:08:01.148Z,26.46
2022-07-29T20:10:28.489Z,26.55
2022-07-29T20:12:55.533Z,26.49
2022-07-29T20:15:22.810Z,26.15
2022-07-29T20:17:51.856Z,26.02
2022-07-29T20:20:23.297Z,25.96
2022-07-29T20:22:50.226Z,25.94
2022-07-29T20:25:17.186Z,25.85
2022-07-29T20:27:44.083Z,25.61
2022-07-29T20:30:14.307Z,25.72
2022-07-29T20:32:41.951Z,25.83
2022-07-29T20:35:13.568Z,25.89
2022-07-29T20:37:52.519Z,26.32
2022-07-29T20:40:25.079Z,26.09
2022-07-29T20:42:52.402Z,25.90
2022-07-29T20:45:20.203Z,25.76
2022-07-29T20:47:47.198Z,25.84
2022-07-29T20:50:14.495Z,25.96
2022-07-29T20:52:43.409Z,25.83
2022-07-29T20:55:10.890Z,26.02
2022-07-29T20:57:39.472Z,26.23
2022-07-29T21:00:08.004Z,26.37
2022-07-29T21:02:36.802Z,26.33
2022-07-29T21:05:04.504Z,26.09
2022-07-29T21:07:31.498Z,25.93
2022-07-29T21:09:58.409Z,25.97
2022-07-29T21:12:25.378Z,25.69
2022-07-29T21:14:52.357Z,25.61
2022-07-29T21:17:22.410Z,25.51
2022-07-29T21:19:55.368Z,25.67
2022-07-29T21:22:23.557Z,25.61
2022-07-29T21:24:50.571Z,25.50
2022-07-29T21:27:38.446Z,25.25
2022-07-29T21:30:07.935Z,25.41
2022-07-29T21:32:34.941Z,25.30
2022-07-29T21:35:01.971Z,25.55
2022-07-29T21:37:29.057Z,25.70
2022-07-29T21:39:56.074Z,25.29
2022-07-29T21:42:23.103Z,25.34
2022-07-29T21:44:51.690Z,25.47
2022-07-29T21:47:18.678Z,25.36
2022-07-29T21:49:46.639Z,25.52
2022-07-29T21:52:14.194Z,25.43
2022-07-29T21:54:41.949Z,25.39
2022-07-29T21:57:09.445Z,25.62
2022-07-29T21:59:36.533Z,25.79
2022-07-29T22:02:03.801Z,25.76
2022-07-29T22:04:31.433Z,25.74
2022-07-29T22:06:58.956Z,25.58
2022-07-29T22:09:26.475Z,25.32
2022-07-29T22:11:54.286Z,24.98
2022-07-29T22:14:22.334Z,24.95
2022-07-29T22:16:49.360Z,25.08
2022-07-29T22:19:16.496Z,24.89
2022-07-29T22:21:43.809Z,24.65
2022-07-29T22:24:11.391Z,24.86
2022-07-29T22:26:38.846Z,24.74
2022-07-29T22:29:06.574Z,25.08
2022-07-29T22:31:33.982Z,25.11
2022-07-29T22:34:00.944Z,25.17
2022-07-29T22:36:27.840Z,24.54
2022-07-29T22:38:54.796Z,24.62
2022-07-29T22:41:21.726Z,24.84
2022-07-29T22:43:48.615Z,24.98
2022-07-29T22:46:15.818Z,25.03
2022-07-29T22:48:42.840Z,25.04
2022-07-29T22:51:10.108Z,24.91
2022-07-29T22:53:37.141Z,24.84
2022-07-29T22:56:04.557Z,24.99
2022-07-29T22:58:31.507Z,25.04
2022-07-29T23:00:58.738Z,25.06
2022-07-29T23:03:25.760Z,25.15
2022-07-29T23:05:52.860Z,24.97
2022-07-29T23:08:20.126Z,25.07
2022-07-29T23:10:47.687Z,25.03
2022-07-29T23:13:14.965Z,25.11
2022-07-29T23:15:42.232Z,25.22
2022-07-29T23:18:09.288Z,24.99
2022-07-29T23:20:36.465Z,24.99
2022-07-29T23:23:03.700Z,25.25
2022-07-29T23:25:30.674Z,25.15
2022-07-29T23:27:57.744Z,25.13
2022-07-29T23:30:24.925Z,25.21
2022-07-29T23:32:52.224Z,25.31
2022-07-29T23:35:19.233Z,25.04
2022-07-29T23:37:46.193Z,24.88
2022-07-29T23:40:14.735Z,24.80
2022-07-29T23:42:42.816Z,24.81
2022-07-29T23:45:11.415Z,24.77
2022-07-29T23:47:38.735Z,24.58
2022-07-29T23:50:07.623Z,24.76
2022-07-29T23:52:35.642Z,25.02
2022-07-29T23:55:37.431Z,24.93
2022-07-29T23:57:50.357Z,24.83
